sensor_id;sensor_type;location;lat;lon;timestamp;P1;durP1;ratioP1;P2;durP2;ratioP2
29370;SDS011;16357;52.188;7.838;2022-07-21T00:00:19;11.25;;;7.95;;
29370;SDS011;16357;52.188;7.838;2022-07-21T00:02:47;12.43;;;8.07;;
29370;SDS011;16357;52.188;7.838;2022-07-21T00:05:14;12.50;;;8.10;;
29370;SDS011;16357;52.188;7.838;2022-07-21T00:07:42;14.50;;;7.97;;
29370;SDS011;16357;52.188;7.838;2022-07-21T00:10:09;12.48;;;8.40;;
29370;SDS011;16357;52.188;7.838;2022-07-21T00:12:36;13.02;;;8.15;;
29370;SDS011;16357;52.188;7.838;2022-07-21T00:15:03;10.63;;;7.95;;
29370;SDS011;16357;52.188;7.838;2022-07-21T00:17:30;14.50;;;9.00;;
29370;SDS011;16357;52.188;7.838;2022-07-21T00:19:58;11.05;;;8.02;;
29370;SDS011;16357;52.188;7.838;2022-07-21T00:22:24;13.52;;;8.57;;
29370;SDS011;16357;52.188;7.838;2022-07-21T00:24:51;12.68;;;9.00;;
29370;SDS011;16357;52.188;7.838;2022-07-21T00:27:17;13.35;;;8.50;;
29370;SDS011;16357;52.188;7.838;2022-07-21T00:29:44;12.52;;;8.15;;
29370;SDS011;16357;52.188;7.838;2022-07-21T00:32:10;13.57;;;9.05;;
29370;SDS011;16357;52.188;7.838;2022-07-21T00:34:37;13.60;;;8.82;;
29370;SDS011;16357;52.188;7.838;2022-07-21T00:37:04;10.82;;;8.98;;
29370;SDS011;16357;52.188;7.838;2022-07-21T00:39:30;11.82;;;8.60;;
29370;SDS011;16357;52.188;7.838;2022-07-21T00:41:57;11.80;;;8.80;;
29370;SDS011;16357;52.188;7.838;2022-07-21T00:44:25;11.77;;;8.30;;
29370;SDS011;16357;52.188;7.838;2022-07-21T00:46:53;12.25;;;9.18;;
29370;SDS011;16357;52.188;7.838;2022-07-21T00:49:21;12.63;;;8.85;;
29370;SDS011;16357;52.188;7.838;2022-07-21T00:51:48;13.88;;;9.20;;
29370;SDS011;16357;52.188;7.838;2022-07-21T00:54:16;12.35;;;9.18;;
29370;SDS011;16357;52.188;7.838;2022-07-21T00:56:44;14.10;;;9.43;;
29370;SDS011;16357;52.188;7.838;2022-07-21T00:59:12;13.10;;;9.90;;
29370;SDS011;16357;52.188;7.838;2022-07-21T01:01:38;12.23;;;9.25;;
29370;SDS011;16357;52.188;7.838;2022-07-21T01:04:05;14.75;;;9.95;;
29370;SDS011;16357;52.188;7.838;2022-07-21T01:06:32;14.95;;;9.27;;
29370;SDS011;16357;52.188;7.838;2022-07-21T01:08:58;13.90;;;10.23;;
29370;SDS011;16357;52.188;7.838;2022-07-21T01:11:27;13.35;;;9.95;;
29370;SDS011;16357;52.188;7.838;2022-07-21T01:13:54;12.48;;;9.48;;
29370;SDS011;16357;52.188;7.838;2022-07-21T01:16:21;11.93;;;9.05;;
29370;SDS011;16357;52.188;7.838;2022-07-21T01:18:48;11.55;;;9.02;;
29370;SDS011;16357;52.188;7.838;2022-07-21T01:21:32;11.70;;;9.10;;
29370;SDS011;16357;52.188;7.838;2022-07-21T01:24:01;15.05;;;8.63;;
29370;SDS011;16357;52.188;7.838;2022-07-21T01:26:29;11.18;;;8.60;;
29370;SDS011;16357;52.188;7.838;2022-07-21T01:28:56;10.40;;;7.80;;
29370;SDS011;16357;52.188;7.838;2022-07-21T01:31:23;11.13;;;7.28;;
29370;SDS011;16357;52.188;7.838;2022-07-21T01:33:50;8.98;;;7.28;;
29370;SDS011;16357;52.188;7.838;2022-07-21T01:36:17;11.32;;;7.07;;
29370;SDS011;16357;52.188;7.838;2022-07-21T01:38:43;10.43;;;7.20;;
29370;SDS011;16357;52.188;7.838;2022-07-21T01:41:29;8.23;;;6.63;;
29370;SDS011;16357;52.188;7.838;2022-07-21T01:44:03;10.88;;;6.80;;
29370;SDS011;16357;52.188;7.838;2022-07-21T01:46:36;8.38;;;6.80;;
29370;SDS011;16357;52.188;7.838;2022-07-21T01:49:05;7.93;;;6.03;;
29370;SDS011;16357;52.188;7.838;2022-07-21T01:51:33;8.57;;;6.18;;
29370;SDS011;16357;52.188;7.838;2022-07-21T01:54:00;8.07;;;6.63;;
29370;SDS011;16357;52.188;7.838;2022-07-21T01:56:26;8.77;;;6.38;;
29370;SDS011;16357;52.188;7.838;2022-07-21T01:58:54;8.18;;;6.03;;
29370;SDS011;16357;52.188;7.838;2022-07-21T02:01:23;9.13;;;6.70;;
29370;SDS011;16357;52.188;7.838;2022-07-21T02:03:53;8.48;;;6.25;;
29370;SDS011;16357;52.188;7.838;2022-07-21T02:06:21;8.07;;;6.30;;
29370;SDS011;16357;52.188;7.838;2022-07-21T02:08:48;8.45;;;6.75;;
29370;SDS011;16357;52.188;7.838;2022-07-21T02:11:16;8.70;;;6.45;;
29370;SDS011;16357;52.188;7.838;2022-07-21T02:13:43;8.57;;;6.43;;
29370;SDS011;16357;52.188;7.838;2022-07-21T02:16:11;8.30;;;6.63;;
29370;SDS011;16357;52.188;7.838;2022-07-21T02:18:39;7.93;;;6.53;;
29370;SDS011;16357;52.188;7.838;2022-07-21T02:21:06;9.98;;;6.70;;
29370;SDS011;16357;52.188;7.838;2022-07-21T02:23:33;9.00;;;6.88;;
29370;SDS011;16357;52.188;7.838;2022-07-21T02:26:00;7.93;;;6.95;;
29370;SDS011;16357;52.188;7.838;2022-07-21T02:28:27;8.00;;;7.03;;
29370;SDS011;16357;52.188;7.838;2022-07-21T02:30:54;10.30;;;7.38;;
29370;SDS011;16357;52.188;7.838;2022-07-21T02:33:21;8.20;;;6.78;;
29370;SDS011;16357;52.188;7.838;2022-07-21T02:35:48;9.00;;;7.35;;
29370;SDS011;16357;52.188;7.838;2022-07-21T02:38:15;9.18;;;6.72;;
29370;SDS011;16357;52.188;7.838;2022-07-21T02:40:42;7.22;;;6.40;;
29370;SDS011;16357;52.188;7.838;2022-07-21T02:43:08;7.95;;;6.53;;
29370;SDS011;16357;52.188;7.838;2022-07-21T02:45:35;7.07;;;6.28;;
29370;SDS011;16357;52.188;7.838;2022-07-21T02:48:04;9.63;;;6.05;;
29370;SDS011;16357;52.188;7.838;2022-07-21T02:50:34;6.80;;;5.50;;
29370;SDS011;16357;52.188;7.838;2022-07-21T02:53:03;7.80;;;6.10;;
29370;SDS011;16357;52.188;7.838;2022-07-21T02:55:31;7.30;;;5.90;;
29370;SDS011;16357;52.188;7.838;2022-07-21T02:58:09;9.95;;;6.25;;
29370;SDS011;16357;52.188;7.838;2022-07-21T03:00:39;9.32;;;6.15;;
29370;SDS011;16357;52.188;7.838;2022-07-21T03:03:07;8.18;;;6.32;;
29370;SDS011;16357;52.188;7.838;2022-07-21T03:05:36;7.10;;;6.15;;
29370;SDS011;16357;52.188;7.838;2022-07-21T03:08:04;7.93;;;6.07;;
29370;SDS011;16357;52.188;7.838;2022-07-21T03:10:31;6.90;;;6.05;;
29370;SDS011;16357;52.188;7.838;2022-07-21T03:12:58;8.88;;;5.63;;
29370;SDS011;16357;52.188;7.838;2022-07-21T03:15:24;7.95;;;5.72;;
29370;SDS011;16357;52.188;7.838;2022-07-21T03:17:52;6.90;;;5.55;;
29370;SDS011;16357;52.188;7.838;2022-07-21T03:20:22;7.35;;;5.57;;
29370;SDS011;16357;52.188;7.838;2022-07-21T03:22:49;6.50;;;5.20;;
29370;SDS011;16357;52.188;7.838;2022-07-21T03:25:16;8.85;;;5.57;;
29370;SDS011;16357;52.188;7.838;2022-07-21T03:27:43;7.50;;;5.25;;
29370;SDS011;16357;52.188;7.838;2022-07-21T03:30:11;6.20;;;4.97;;
29370;SDS011;16357;52.188;7.838;2022-07-21T03:32:39;7.85;;;5.28;;
29370;SDS011;16357;52.188;7.838;2022-07-21T03:35:06;5.65;;;4.70;;
29370;SDS011;16357;52.188;7.838;2022-07-21T03:37:44;8.00;;;5.95;;
29370;SDS011;16357;52.188;7.838;2022-07-21T03:40:18;5.68;;;4.95;;
29370;SDS011;16357;52.188;7.838;2022-07-21T03:42:52;10.00;;;6.55;;
29370;SDS011;16357;52.188;7.838;2022-07-21T03:45:21;7.28;;;5.75;;
29370;SDS011;16357;52.188;7.838;2022-07-21T03:47:49;6.57;;;5.95;;
29370;SDS011;16357;52.188;7.838;2022-07-21T03:50:16;8.50;;;5.68;;
29370;SDS011;16357;52.188;7.838;2022-07-21T03:52:44;7.43;;;5.32;;
29370;SDS011;16357;52.188;7.838;2022-07-21T03:55:11;5.45;;;4.65;;
29370;SDS011;16357;52.188;7.838;2022-07-21T03:57:53;7.07;;;4.18;;
29370;SDS011;16357;52.188;7.838;2022-07-21T04:00:26;4.25;;;3.63;;
29370;SDS011;16357;52.188;7.838;2022-07-21T04:02:55;5.60;;;3.45;;
29370;SDS011;16357;52.188;7.838;2022-07-21T04:05:23;4.85;;;2.85;;
29370;SDS011;16357;52.188;7.838;2022-07-21T04:07:51;2.60;;;2.40;;
29370;SDS011;16357;52.188;7.838;2022-07-21T04:10:19;3.17;;;2.75;;
29370;SDS011;16357;52.188;7.838;2022-07-21T04:12:48;4.07;;;2.85;;
29370;SDS011;16357;52.188;7.838;2022-07-21T04:15:15;4.82;;;3.08;;
29370;SDS011;16357;52.188;7.838;2022-07-21T04:17:43;4.90;;;2.97;;
29370;SDS011;16357;52.188;7.838;2022-07-21T04:20:10;3.40;;;2.50;;
29370;SDS011;16357;52.188;7.838;2022-07-21T04:22:38;3.85;;;2.70;;
29370;SDS011;16357;52.188;7.838;2022-07-21T04:25:05;3.50;;;2.90;;
29370;SDS011;16357;52.188;7.838;2022-07-21T04:27:33;4.32;;;3.17;;
29370;SDS011;16357;52.188;7.838;2022-07-21T04:30:00;5.22;;;2.60;;
29370;SDS011;16357;52.188;7.838;2022-07-21T04:32:27;3.67;;;3.00;;
29370;SDS011;16357;52.188;7.838;2022-07-21T04:34:53;3.67;;;2.92;;
29370;SDS011;16357;52.188;7.838;2022-07-21T04:37:20;3.58;;;2.67;;
29370;SDS011;16357;52.188;7.838;2022-07-21T04:39:48;3.65;;;2.65;;
29370;SDS011;16357;52.188;7.838;2022-07-21T04:42:18;3.30;;;2.63;;
29370;SDS011;16357;52.188;7.838;2022-07-21T04:44:45;3.72;;;2.85;;
29370;SDS011;16357;52.188;7.838;2022-07-21T04:47:12;3.92;;;2.63;;
29370;SDS011;16357;52.188;7.838;2022-07-21T04:49:38;2.67;;;2.38;;
29370;SDS011;16357;52.188;7.838;2022-07-21T04:52:05;3.50;;;2.88;;
29370;SDS011;16357;52.188;7.838;2022-07-21T04:54:31;3.67;;;2.80;;
29370;SDS011;16357;52.188;7.838;2022-07-21T04:56:58;4.78;;;3.00;;
29370;SDS011;16357;52.188;7.838;2022-07-21T04:59:25;3.10;;;2.80;;
29370;SDS011;16357;52.188;7.838;2022-07-21T05:01:52;3.65;;;3.20;;
29370;SDS011;16357;52.188;7.838;2022-07-21T05:04:18;4.00;;;3.08;;
29370;SDS011;16357;52.188;7.838;2022-07-21T05:06:45;5.95;;;3.58;;
29370;SDS011;16357;52.188;7.838;2022-07-21T05:09:12;4.28;;;3.30;;
29370;SDS011;16357;52.188;7.838;2022-07-21T05:11:38;3.45;;;3.00;;
29370;SDS011;16357;52.188;7.838;2022-07-21T05:14:05;3.78;;;3.25;;
29370;SDS011;16357;52.188;7.838;2022-07-21T05:16:39;4.80;;;3.80;;
29370;SDS011;16357;52.188;7.838;2022-07-21T05:19:06;4.65;;;3.58;;
29370;SDS011;16357;52.188;7.838;2022-07-21T05:21:32;4.22;;;3.13;;
29370;SDS011;16357;52.188;7.838;2022-07-21T05:23:59;4.93;;;3.40;;
29370;SDS011;16357;52.188;7.838;2022-07-21T05:26:26;5.60;;;2.95;;
29370;SDS011;16357;52.188;7.838;2022-07-21T05:28:52;5.68;;;3.17;;
29370;SDS011;16357;52.188;7.838;2022-07-21T05:31:19;4.13;;;3.15;;
29370;SDS011;16357;52.188;7.838;2022-07-21T05:33:46;4.03;;;3.20;;
29370;SDS011;16357;52.188;7.838;2022-07-21T05:36:12;3.42;;;3.00;;
29370;SDS011;16357;52.188;7.838;2022-07-21T05:38:39;3.67;;;3.13;;
29370;SDS011;16357;52.188;7.838;2022-07-21T05:41:05;6.00;;;3.47;;
29370;SDS011;16357;52.188;7.838;2022-07-21T05:43:32;4.90;;;3.20;;
29370;SDS011;16357;52.188;7.838;2022-07-21T05:45:59;4.90;;;3.25;;
29370;SDS011;16357;52.188;7.838;2022-07-21T05:48:25;5.75;;;3.00;;
29370;SDS011;16357;52.188;7.838;2022-07-21T05:50:52;4.03;;;3.42;;
29370;SDS011;16357;52.188;7.838;2022-07-21T05:53:19;4.43;;;3.67;;
29370;SDS011;16357;52.188;7.838;2022-07-21T05:55:45;4.68;;;3.60;;
29370;SDS011;16357;52.188;7.838;2022-07-21T05:58:12;4.03;;;3.38;;
29370;SDS011;16357;52.188;7.838;2022-07-21T06:00:39;4.38;;;3.85;;
29370;SDS011;16357;52.188;7.838;2022-07-21T06:03:05;3.88;;;3.47;;
29370;SDS011;16357;52.188;7.838;2022-07-21T06:05:38;3.67;;;3.38;;
29370;SDS011;16357;52.188;7.838;2022-07-21T06:08:04;4.40;;;4.00;;
29370;SDS011;16357;52.188;7.838;2022-07-21T06:10:31;7.05;;;3.95;;
29370;SDS011;16357;52.188;7.838;2022-07-21T06:12:59;6.55;;;4.03;;
29370;SDS011;16357;52.188;7.838;2022-07-21T06:15:26;6.50;;;3.90;;
29370;SDS011;16357;52.188;7.838;2022-07-21T06:17:52;5.00;;;3.97;;
29370;SDS011;16357;52.188;7.838;2022-07-21T06:20:20;6.78;;;4.70;;
29370;SDS011;16357;52.188;7.838;2022-07-21T06:22:47;5.28;;;4.60;;
29370;SDS011;16357;52.188;7.838;2022-07-21T06:25:14;8.00;;;6.00;;
29370;SDS011;16357;52.188;7.838;2022-07-21T06:27:40;5.65;;;5.05;;
29370;SDS011;16357;52.188;7.838;2022-07-21T06:30:07;6.88;;;5.25;;
29370;SDS011;16357;52.188;7.838;2022-07-21T06:32:34;7.20;;;5.57;;
29370;SDS011;16357;52.188;7.838;2022-07-21T06:35:02;6.45;;;5.60;;
29370;SDS011;16357;52.188;7.838;2022-07-21T06:37:29;5.97;;;5.40;;
29370;SDS011;16357;52.188;7.838;2022-07-21T06:39:55;7.53;;;6.78;;
29370;SDS011;16357;52.188;7.838;2022-07-21T06:42:22;8.95;;;6.55;;
29370;SDS011;16357;52.188;7.838;2022-07-21T06:44:48;8.50;;;7.40;;
29370;SDS011;16357;52.188;7.838;2022-07-21T06:47:18;7.82;;;6.70;;
29370;SDS011;16357;52.188;7.838;2022-07-21T06:49:45;7.35;;;6.43;;
29370;SDS011;16357;52.188;7.838;2022-07-21T06:52:12;8.38;;;6.88;;
29370;SDS011;16357;52.188;7.838;2022-07-21T06:54:39;8.10;;;7.30;;
29370;SDS011;16357;52.188;7.838;2022-07-21T06:57:05;8.60;;;7.20;;
29370;SDS011;16357;52.188;7.838;2022-07-21T06:59:32;9.68;;;8.48;;
29370;SDS011;16357;52.188;7.838;2022-07-21T07:01:59;16.63;;;8.70;;
29370;SDS011;16357;52.188;7.838;2022-07-21T07:04:27;18.95;;;8.60;;
29370;SDS011;16357;52.188;7.838;2022-07-21T07:06:54;16.48;;;9.18;;
29370;SDS011;16357;52.188;7.838;2022-07-21T07:09:22;11.38;;;9.07;;
29370;SDS011;16357;52.188;7.838;2022-07-21T07:11:49;13.73;;;9.85;;
29370;SDS011;16357;52.188;7.838;2022-07-21T07:14:40;12.48;;;9.57;;
29370;SDS011;16357;52.188;7.838;2022-07-21T07:17:06;13.27;;;10.57;;
29370;SDS011;16357;52.188;7.838;2022-07-21T07:19:33;14.70;;;10.77;;
29370;SDS011;16357;52.188;7.838;2022-07-21T07:22:00;13.93;;;12.15;;
29370;SDS011;16357;52.188;7.838;2022-07-21T07:24:26;15.32;;;12.48;;
29370;SDS011;16357;52.188;7.838;2022-07-21T07:26:52;14.75;;;13.15;;
29370;SDS011;16357;52.188;7.838;2022-07-21T07:29:19;14.70;;;13.10;;
29370;SDS011;16357;52.188;7.838;2022-07-21T07:31:46;14.85;;;11.75;;
29370;SDS011;16357;52.188;7.838;2022-07-21T07:34:12;20.70;;;12.80;;
29370;SDS011;16357;52.188;7.838;2022-07-21T07:36:39;17.80;;;12.93;;
29370;SDS011;16357;52.188;7.838;2022-07-21T07:39:10;48.58;;;14.05;;
29370;SDS011;16357;52.188;7.838;2022-07-21T07:41:37;21.38;;;13.15;;
29370;SDS011;16357;52.188;7.838;2022-07-21T07:44:04;14.80;;;12.43;;
29370;SDS011;16357;52.188;7.838;2022-07-21T07:46:31;14.20;;;12.65;;
29370;SDS011;16357;52.188;7.838;2022-07-21T07:48:58;15.68;;;12.63;;
29370;SDS011;16357;52.188;7.838;2022-07-21T07:51:35;18.25;;;12.15;;
29370;SDS011;16357;52.188;7.838;2022-07-21T07:54:02;14.77;;;11.90;;
29370;SDS011;16357;52.188;7.838;2022-07-21T07:56:30;14.25;;;12.05;;
29370;SDS011;16357;52.188;7.838;2022-07-21T07:58:56;19.98;;;12.65;;
29370;SDS011;16357;52.188;7.838;2022-07-21T08:01:24;18.05;;;12.02;;
29370;SDS011;16357;52.188;7.838;2022-07-21T08:03:50;18.30;;;11.45;;
29370;SDS011;16357;52.188;7.838;2022-07-21T08:06:17;13.30;;;11.90;;
29370;SDS011;16357;52.188;7.838;2022-07-21T08:08:44;13.55;;;12.15;;
29370;SDS011;16357;52.188;7.838;2022-07-21T08:11:10;16.88;;;12.52;;
29370;SDS011;16357;52.188;7.838;2022-07-21T08:13:39;13.55;;;12.15;;
29370;SDS011;16357;52.188;7.838;2022-07-21T08:16:06;15.30;;;13.00;;
29370;SDS011;16357;52.188;7.838;2022-07-21T08:18:32;14.85;;;13.23;;
29370;SDS011;16357;52.188;7.838;2022-07-21T08:20:59;14.10;;;12.60;;
29370;SDS011;16357;52.188;7.838;2022-07-21T08:23:26;18.35;;;12.88;;
29370;SDS011;16357;52.188;7.838;2022-07-21T08:25:52;14.63;;;12.77;;
29370;SDS011;16357;52.188;7.838;2022-07-21T08:28:19;16.55;;;13.45;;
29370;SDS011;16357;52.188;7.838;2022-07-21T08:30:45;23.13;;;14.00;;
29370;SDS011;16357;52.188;7.838;2022-07-21T08:33:12;14.52;;;12.73;;
29370;SDS011;16357;52.188;7.838;2022-07-21T08:35:38;19.05;;;12.15;;
29370;SDS011;16357;52.188;7.838;2022-07-21T08:38:06;14.90;;;13.40;;
29370;SDS011;16357;52.188;7.838;2022-07-21T08:40:34;23.13;;;12.45;;
29370;SDS011;16357;52.188;7.838;2022-07-21T08:43:03;32.65;;;12.98;;
29370;SDS011;16357;52.188;7.838;2022-07-21T08:45:31;14.82;;;11.75;;
29370;SDS011;16357;52.188;7.838;2022-07-21T08:47:58;26.67;;;12.35;;
29370;SDS011;16357;52.188;7.838;2022-07-21T08:50:26;22.00;;;11.52;;
29370;SDS011;16357;52.188;7.838;2022-07-21T08:52:55;16.88;;;11.75;;
29370;SDS011;16357;52.188;7.838;2022-07-21T08:55:29;14.88;;;11.90;;
29370;SDS011;16357;52.188;7.838;2022-07-21T08:58:02;15.27;;;12.45;;
29370;SDS011;16357;52.188;7.838;2022-07-21T09:00:33;12.85;;;11.65;;
29370;SDS011;16357;52.188;7.838;2022-07-21T09:05:41;13.38;;;11.60;;
29370;SDS011;16357;52.188;7.838;2022-07-21T09:08:09;13.73;;;12.23;;
29370;SDS011;16357;52.188;7.838;2022-07-21T09:10:36;13.20;;;11.90;;
29370;SDS011;16357;52.188;7.838;2022-07-21T09:13:04;20.00;;;11.85;;
29370;SDS011;16357;52.188;7.838;2022-07-21T09:15:32;11.95;;;10.75;;
29370;SDS011;16357;52.188;7.838;2022-07-21T09:18:04;13.07;;;11.77;;
29370;SDS011;16357;52.188;7.838;2022-07-21T09:20:36;14.13;;;12.73;;
29370;SDS011;16357;52.188;7.838;2022-07-21T09:25:35;12.38;;;11.10;;
29370;SDS011;16357;52.188;7.838;2022-07-21T09:28:07;13.30;;;12.00;;
29370;SDS011;16357;52.188;7.838;2022-07-21T09:30:51;13.32;;;11.77;;
29370;SDS011;16357;52.188;7.838;2022-07-21T09:35:59;15.52;;;12.40;;
29370;SDS011;16357;52.188;7.838;2022-07-21T09:38:29;12.95;;;11.52;;
29370;SDS011;16357;52.188;7.838;2022-07-21T09:41:08;13.10;;;11.80;;
29370;SDS011;16357;52.188;7.838;2022-07-21T09:43:52;13.15;;;11.77;;
29370;SDS011;16357;52.188;7.838;2022-07-21T09:46:29;13.38;;;11.63;;
29370;SDS011;16357;52.188;7.838;2022-07-21T09:48:57;13.35;;;11.52;;
29370;SDS011;16357;52.188;7.838;2022-07-21T09:51:46;13.90;;;11.88;;
29370;SDS011;16357;52.188;7.838;2022-07-21T09:54:14;13.90;;;11.85;;
29370;SDS011;16357;52.188;7.838;2022-07-21T09:56:41;14.65;;;13.18;;
29370;SDS011;16357;52.188;7.838;2022-07-21T09:59:10;14.05;;;12.45;;
29370;SDS011;16357;52.188;7.838;2022-07-21T10:01:38;13.25;;;11.80;;
29370;SDS011;16357;52.188;7.838;2022-07-21T10:04:05;13.45;;;11.75;;
29370;SDS011;16357;52.188;7.838;2022-07-21T10:06:33;12.90;;;11.63;;
29370;SDS011;16357;52.188;7.838;2022-07-21T10:09:03;12.52;;;11.32;;
29370;SDS011;16357;52.188;7.838;2022-07-21T10:11:35;12.02;;;10.77;;
29370;SDS011;16357;52.188;7.838;2022-07-21T10:14:02;13.68;;;11.13;;
29370;SDS011;16357;52.188;7.838;2022-07-21T10:16:29;15.75;;;11.52;;
29370;SDS011;16357;52.188;7.838;2022-07-21T10:21:58;12.20;;;10.90;;
29370;SDS011;16357;52.188;7.838;2022-07-21T10:24:34;13.43;;;10.80;;
29370;SDS011;16357;52.188;7.838;2022-07-21T10:32:15;15.48;;;10.55;;
29370;SDS011;16357;52.188;7.838;2022-07-21T10:34:42;11.05;;;9.85;;
29370;SDS011;16357;52.188;7.838;2022-07-21T10:37:09;13.35;;;9.80;;
29370;SDS011;16357;52.188;7.838;2022-07-21T10:39:37;12.82;;;9.90;;
29370;SDS011;16357;52.188;7.838;2022-07-21T10:42:23;9.88;;;8.73;;
29370;SDS011;16357;52.188;7.838;2022-07-21T10:44:49;11.07;;;9.93;;
29370;SDS011;16357;52.188;7.838;2022-07-21T10:47:17;10.57;;;9.52;;
29370;SDS011;16357;52.188;7.838;2022-07-21T10:49:48;12.98;;;9.73;;
29370;SDS011;16357;52.188;7.838;2022-07-21T10:57:40;12.07;;;9.68;;
29370;SDS011;16357;52.188;7.838;2022-07-21T11:00:17;10.25;;;9.13;;
29370;SDS011;16357;52.188;7.838;2022-07-21T11:02:58;10.10;;;9.10;;
29370;SDS011;16357;52.188;7.838;2022-07-21T11:05:28;9.75;;;8.75;;
29370;SDS011;16357;52.188;7.838;2022-07-21T11:08:12;10.68;;;9.55;;
29370;SDS011;16357;52.188;7.838;2022-07-21T11:10:42;11.00;;;9.13;;
29370;SDS011;16357;52.188;7.838;2022-07-21T11:13:15;11.27;;;9.00;;
29370;SDS011;16357;52.188;7.838;2022-07-21T11:15:43;9.40;;;8.55;;
29370;SDS011;16357;52.188;7.838;2022-07-21T11:18:16;9.20;;;8.30;;
29370;SDS011;16357;52.188;7.838;2022-07-21T11:20:44;9.85;;;7.85;;
29370;SDS011;16357;52.188;7.838;2022-07-21T11:23:33;9.23;;;8.20;;
29370;SDS011;16357;52.188;7.838;2022-07-21T11:26:12;10.18;;;7.82;;
29370;SDS011;16357;52.188;7.838;2022-07-21T11:28:40;8.07;;;7.28;;
29370;SDS011;16357;52.188;7.838;2022-07-21T11:33:37;8.05;;;6.88;;
29370;SDS011;16357;52.188;7.838;2022-07-21T11:36:05;7.63;;;6.88;;
29370;SDS011;16357;52.188;7.838;2022-07-21T11:38:37;7.20;;;6.45;;
29370;SDS011;16357;52.188;7.838;2022-07-21T11:41:23;7.22;;;6.15;;
29370;SDS011;16357;52.188;7.838;2022-07-21T11:43:49;8.70;;;6.30;;
29370;SDS011;16357;52.188;7.838;2022-07-21T11:46:16;7.80;;;5.90;;
29370;SDS011;16357;52.188;7.838;2022-07-21T11:48:43;5.60;;;4.90;;
29370;SDS011;16357;52.188;7.838;2022-07-21T11:51:09;8.43;;;5.05;;
29370;SDS011;16357;52.188;7.838;2022-07-21T11:53:36;7.75;;;5.15;;
29370;SDS011;16357;52.188;7.838;2022-07-21T11:56:15;5.03;;;4.18;;
29370;SDS011;16357;52.188;7.838;2022-07-21T11:58:42;7.00;;;4.28;;
29370;SDS011;16357;52.188;7.838;2022-07-21T12:01:10;5.30;;;4.15;;
29370;SDS011;16357;52.188;7.838;2022-07-21T12:03:48;4.72;;;4.15;;
29370;SDS011;16357;52.188;7.838;2022-07-21T12:06:17;5.10;;;4.00;;
29370;SDS011;16357;52.188;7.838;2022-07-21T12:08:44;5.20;;;4.20;;
29370;SDS011;16357;52.188;7.838;2022-07-21T12:11:11;23.27;;;5.63;;
29370;SDS011;16357;52.188;7.838;2022-07-21T12:13:54;21.02;;;5.90;;
29370;SDS011;16357;52.188;7.838;2022-07-21T12:16:22;14.30;;;4.63;;
29370;SDS011;16357;52.188;7.838;2022-07-21T12:18:49;8.07;;;4.57;;
29370;SDS011;16357;52.188;7.838;2022-07-21T12:21:15;9.48;;;4.72;;
29370;SDS011;16357;52.188;7.838;2022-07-21T12:23:42;20.13;;;5.28;;
29370;SDS011;16357;52.188;7.838;2022-07-21T12:26:19;10.45;;;4.53;;
29370;SDS011;16357;52.188;7.838;2022-07-21T12:28:50;17.48;;;4.22;;
29370;SDS011;16357;52.188;7.838;2022-07-21T12:31:24;7.80;;;4.43;;
29370;SDS011;16357;52.188;7.838;2022-07-21T12:33:51;14.43;;;5.13;;
29370;SDS011;16357;52.188;7.838;2022-07-21T12:36:40;9.00;;;4.55;;
29370;SDS011;16357;52.188;7.838;2022-07-21T12:42:04;9.05;;;4.32;;
29370;SDS011;16357;52.188;7.838;2022-07-21T12:44:32;13.63;;;4.60;;
29370;SDS011;16357;52.188;7.838;2022-07-21T12:47:12;9.18;;;4.22;;
29370;SDS011;16357;52.188;7.838;2022-07-21T12:49:59;17.77;;;4.75;;
29370;SDS011;16357;52.188;7.838;2022-07-21T12:52:48;6.45;;;4.05;;
29370;SDS011;16357;52.188;7.838;2022-07-21T12:55:14;10.85;;;4.38;;
29370;SDS011;16357;52.188;7.838;2022-07-21T12:57:41;10.63;;;4.07;;
29370;SDS011;16357;52.188;7.838;2022-07-21T13:00:07;12.25;;;5.32;;
29370;SDS011;16357;52.188;7.838;2022-07-21T13:02:51;6.68;;;4.70;;
29370;SDS011;16357;52.188;7.838;2022-07-21T13:05:20;11.45;;;5.70;;
29370;SDS011;16357;52.188;7.838;2022-07-21T13:07:47;15.55;;;5.82;;
29370;SDS011;16357;52.188;7.838;2022-07-21T13:10:14;25.75;;;6.22;;
29370;SDS011;16357;52.188;7.838;2022-07-21T13:12:44;8.48;;;5.35;;
29370;SDS011;16357;52.188;7.838;2022-07-21T13:15:12;8.48;;;4.80;;
29370;SDS011;16357;52.188;7.838;2022-07-21T13:17:39;10.05;;;5.28;;
29370;SDS011;16357;52.188;7.838;2022-07-21T13:20:06;10.82;;;5.18;;
29370;SDS011;16357;52.188;7.838;2022-07-21T13:22:33;5.57;;;5.03;;
29370;SDS011;16357;52.188;7.838;2022-07-21T13:25:00;5.70;;;5.07;;
29370;SDS011;16357;52.188;7.838;2022-07-21T13:27:27;7.20;;;5.03;;
29370;SDS011;16357;52.188;7.838;2022-07-21T13:29:53;7.40;;;4.93;;
29370;SDS011;16357;52.188;7.838;2022-07-21T13:32:20;6.53;;;5.30;;
29370;SDS011;16357;52.188;7.838;2022-07-21T13:34:46;9.00;;;4.95;;
29370;SDS011;16357;52.188;7.838;2022-07-21T13:37:33;12.88;;;5.07;;
29370;SDS011;16357;52.188;7.838;2022-07-21T13:39:59;11.68;;;5.80;;
29370;SDS011;16357;52.188;7.838;2022-07-21T13:42:46;7.32;;;4.88;;
29370;SDS011;16357;52.188;7.838;2022-07-21T13:45:26;5.53;;;4.38;;
29370;SDS011;16357;52.188;7.838;2022-07-21T13:47:53;8.52;;;4.47;;
29370;SDS011;16357;52.188;7.838;2022-07-21T13:50:19;7.38;;;4.70;;
29370;SDS011;16357;52.188;7.838;2022-07-21T13:52:46;6.85;;;4.50;;
29370;SDS011;16357;52.188;7.838;2022-07-21T13:55:12;6.28;;;4.15;;
29370;SDS011;16357;52.188;7.838;2022-07-21T13:57:39;4.15;;;3.75;;
29370;SDS011;16357;52.188;7.838;2022-07-21T14:00:07;3.50;;;3.20;;
29370;SDS011;16357;52.188;7.838;2022-07-21T14:02:35;4.85;;;3.55;;
29370;SDS011;16357;52.188;7.838;2022-07-21T14:05:03;3.80;;;3.10;;
29370;SDS011;16357;52.188;7.838;2022-07-21T14:07:30;3.55;;;2.88;;
29370;SDS011;16357;52.188;7.838;2022-07-21T14:09:57;2.78;;;2.40;;
29370;SDS011;16357;52.188;7.838;2022-07-21T14:12:24;3.15;;;2.60;;
29370;SDS011;16357;52.188;7.838;2022-07-21T14:14:50;2.28;;;2.08;;
29370;SDS011;16357;52.188;7.838;2022-07-21T14:17:17;2.60;;;2.10;;
29370;SDS011;16357;52.188;7.838;2022-07-21T14:19:44;2.28;;;1.90;;
29370;SDS011;16357;52.188;7.838;2022-07-21T14:22:16;4.00;;;2.00;;
29370;SDS011;16357;52.188;7.838;2022-07-21T14:24:50;2.63;;;2.10;;
29370;SDS011;16357;52.188;7.838;2022-07-21T14:27:36;2.10;;;1.90;;
29370;SDS011;16357;52.188;7.838;2022-07-21T14:30:03;1.60;;;1.50;;
29370;SDS011;16357;52.188;7.838;2022-07-21T14:32:29;1.58;;;1.40;;
29370;SDS011;16357;52.188;7.838;2022-07-21T14:34:57;1.73;;;1.50;;
29370;SDS011;16357;52.188;7.838;2022-07-21T14:37:25;1.55;;;1.33;;
29370;SDS011;16357;52.188;7.838;2022-07-21T14:39:51;1.25;;;1.15;;
29370;SDS011;16357;52.188;7.838;2022-07-21T14:42:21;2.17;;;1.42;;
29370;SDS011;16357;52.188;7.838;2022-07-21T14:44:50;1.73;;;1.52;;
29370;SDS011;16357;52.188;7.838;2022-07-21T14:47:17;1.63;;;1.48;;
29370;SDS011;16357;52.188;7.838;2022-07-21T14:49:43;2.65;;;1.38;;
29370;SDS011;16357;52.188;7.838;2022-07-21T14:52:10;1.52;;;1.30;;
29370;SDS011;16357;52.188;7.838;2022-07-21T14:54:37;3.67;;;1.30;;
29370;SDS011;16357;52.188;7.838;2022-07-21T14:57:03;1.42;;;1.33;;
29370;SDS011;16357;52.188;7.838;2022-07-21T14:59:35;1.55;;;1.40;;
29370;SDS011;16357;52.188;7.838;2022-07-21T15:02:02;2.15;;;1.40;;
29370;SDS011;16357;52.188;7.838;2022-07-21T15:07:04;2.92;;;2.00;;
29370;SDS011;16357;52.188;7.838;2022-07-21T15:09:31;2.17;;;1.98;;
29370;SDS011;16357;52.188;7.838;2022-07-21T15:11:58;1.90;;;1.80;;
29370;SDS011;16357;52.188;7.838;2022-07-21T15:14:24;2.63;;;1.90;;
29370;SDS011;16357;52.188;7.838;2022-07-21T15:16:51;2.63;;;1.85;;